sensor_id;sensor_type;location;lat;lon;timestamp;temperature;humidity
30889;DHT22;51092;50.874;7.024;2022-07-06T00:00:57;15.90;77.20
30889;DHT22;51092;50.874;7.024;2022-07-06T00:01:58;15.90;77.10
30889;DHT22;51092;50.874;7.024;2022-07-06T00:03:01;15.80;77.50
30889;DHT22;51092;50.874;7.024;2022-07-06T00:04:02;15.80;77.50
30889;DHT22;51092;50.874;7.024;2022-07-06T00:05:06;15.70;76.80
30889;DHT22;51092;50.874;7.024;2022-07-06T00:06:08;15.70;76.50
30889;DHT22;51092;50.874;7.024;2022-07-06T00:07:10;15.60;77.00
30889;DHT22;51092;50.874;7.024;2022-07-06T00:08:12;15.60;76.80
30889;DHT22;51092;50.874;7.024;2022-07-06T00:09:14;15.60;76.30
30889;DHT22;51092;50.874;7.024;2022-07-06T00:10:16;15.50;76.80
30889;DHT22;51092;50.874;7.024;2022-07-06T00:11:18;15.50;77.10
30889;DHT22;51092;50.874;7.024;2022-07-06T00:12:20;15.50;76.80
30889;DHT22;51092;50.874;7.024;2022-07-06T00:13:22;15.50;76.60
30889;DHT22;51092;50.874;7.024;2022-07-06T00:14:24;15.40;76.80
30889;DHT22;51092;50.874;7.024;2022-07-06T00:15:28;15.40;76.60
30889;DHT22;51092;50.874;7.024;2022-07-06T00:16:30;15.40;75.80
30889;DHT22;51092;50.874;7.024;2022-07-06T00:17:32;15.40;75.70
30889;DHT22;51092;50.874;7.024;2022-07-06T00:18:34;15.40;75.80
30889;DHT22;51092;50.874;7.024;2022-07-06T00:19:36;15.40;76.00
30889;DHT22;51092;50.874;7.024;2022-07-06T00:20:38;15.30;76.50
30889;DHT22;51092;50.874;7.024;2022-07-06T00:21:41;15.30;76.90
30889;DHT22;51092;50.874;7.024;2022-07-06T00:22:42;15.30;77.20
30889;DHT22;51092;50.874;7.024;2022-07-06T00:23:45;15.30;77.40
30889;DHT22;51092;50.874;7.024;2022-07-06T00:24:46;15.20;77.90
30889;DHT22;51092;50.874;7.024;2022-07-06T00:25:49;15.20;78.10
30889;DHT22;51092;50.874;7.024;2022-07-06T00:26:50;15.20;78.20
30889;DHT22;51092;50.874;7.024;2022-07-06T00:27:53;15.20;78.40
30889;DHT22;51092;50.874;7.024;2022-07-06T00:28:54;15.10;78.90
30889;DHT22;51092;50.874;7.024;2022-07-06T00:29:57;15.10;79.30
30889;DHT22;51092;50.874;7.024;2022-07-06T00:31:01;15.10;79.60
30889;DHT22;51092;50.874;7.024;2022-07-06T00:32:03;15.00;80.10
30889;DHT22;51092;50.874;7.024;2022-07-06T00:33:06;15.00;80.20
30889;DHT22;51092;50.874;7.024;2022-07-06T00:34:08;15.00;79.50
30889;DHT22;51092;50.874;7.024;2022-07-06T00:35:10;15.10;78.90
30889;DHT22;51092;50.874;7.024;2022-07-06T00:36:12;15.10;79.10
30889;DHT22;51092;50.874;7.024;2022-07-06T00:37:14;15.00;79.60
30889;DHT22;51092;50.874;7.024;2022-07-06T00:38:16;15.00;79.20
30889;DHT22;51092;50.874;7.024;2022-07-06T00:39:19;15.10;78.60
30889;DHT22;51092;50.874;7.024;2022-07-06T00:40:21;15.00;78.90
30889;DHT22;51092;50.874;7.024;2022-07-06T00:41:24;15.00;79.50
30889;DHT22;51092;50.874;7.024;2022-07-06T00:42:25;14.90;80.50
30889;DHT22;51092;50.874;7.024;2022-07-06T00:43:28;14.90;81.00
30889;DHT22;51092;50.874;7.024;2022-07-06T00:44:29;14.90;81.20
30889;DHT22;51092;50.874;7.024;2022-07-06T00:45:34;14.90;81.40
30889;DHT22;51092;50.874;7.024;2022-07-06T00:46:37;14.80;81.70
30889;DHT22;51092;50.874;7.024;2022-07-06T00:47:42;14.70;82.40
30889;DHT22;51092;50.874;7.024;2022-07-06T00:48:44;14.70;82.60
30889;DHT22;51092;50.874;7.024;2022-07-06T00:49:46;14.70;82.10
30889;DHT22;51092;50.874;7.024;2022-07-06T00:51:06;14.70;82.50
30889;DHT22;51092;50.874;7.024;2022-07-06T00:52:09;14.70;81.90
30889;DHT22;51092;50.874;7.024;2022-07-06T00:53:12;14.70;81.70
30889;DHT22;51092;50.874;7.024;2022-07-06T00:54:15;14.60;82.40
30889;DHT22;51092;50.874;7.024;2022-07-06T00:55:18;14.60;82.60
30889;DHT22;51092;50.874;7.024;2022-07-06T00:56:21;14.60;82.40
30889;DHT22;51092;50.874;7.024;2022-07-06T00:57:23;14.60;82.70
30889;DHT22;51092;50.874;7.024;2022-07-06T00:58:25;14.50;83.00
30889;DHT22;51092;50.874;7.024;2022-07-06T00:59:27;14.60;82.80
30889;DHT22;51092;50.874;7.024;2022-07-06T01:00:31;14.50;82.60
30889;DHT22;51092;50.874;7.024;2022-07-06T01:01:33;14.60;82.50
30889;DHT22;51092;50.874;7.024;2022-07-06T01:02:37;14.50;83.20
30889;DHT22;51092;50.874;7.024;2022-07-06T01:03:38;14.50;83.30
30889;DHT22;51092;50.874;7.024;2022-07-06T01:04:41;14.50;83.30
30889;DHT22;51092;50.874;7.024;2022-07-06T01:05:43;14.40;83.80
30889;DHT22;51092;50.874;7.024;2022-07-06T01:06:46;14.40;83.90
30889;DHT22;51092;50.874;7.024;2022-07-06T01:07:49;14.40;84.00
30889;DHT22;51092;50.874;7.024;2022-07-06T01:08:51;14.40;84.20
30889;DHT22;51092;50.874;7.024;2022-07-06T01:09:52;14.30;85.30
30889;DHT22;51092;50.874;7.024;2022-07-06T01:10:55;14.30;85.40
30889;DHT22;51092;50.874;7.024;2022-07-06T01:11:58;14.30;85.90
30889;DHT22;51092;50.874;7.024;2022-07-06T01:12:59;14.30;86.20
30889;DHT22;51092;50.874;7.024;2022-07-06T01:14:02;14.30;86.90
30889;DHT22;51092;50.874;7.024;2022-07-06T01:15:05;14.40;87.00
30889;DHT22;51092;50.874;7.024;2022-07-06T01:16:08;14.30;87.10
30889;DHT22;51092;50.874;7.024;2022-07-06T01:17:10;14.30;87.50
30889;DHT22;51092;50.874;7.024;2022-07-06T01:18:14;14.30;87.70
30889;DHT22;51092;50.874;7.024;2022-07-06T01:19:17;14.30;87.70
30889;DHT22;51092;50.874;7.024;2022-07-06T01:20:20;14.30;87.60
30889;DHT22;51092;50.874;7.024;2022-07-06T01:21:23;14.30;88.40
30889;DHT22;51092;50.874;7.024;2022-07-06T01:22:25;14.30;88.30
30889;DHT22;51092;50.874;7.024;2022-07-06T01:23:27;14.30;88.10
30889;DHT22;51092;50.874;7.024;2022-07-06T01:24:29;14.20;88.90
30889;DHT22;51092;50.874;7.024;2022-07-06T01:25:31;14.20;89.00
30889;DHT22;51092;50.874;7.024;2022-07-06T01:26:33;14.20;89.20
30889;DHT22;51092;50.874;7.024;2022-07-06T01:27:37;14.10;89.50
30889;DHT22;51092;50.874;7.024;2022-07-06T01:28:40;14.10;88.90
30889;DHT22;51092;50.874;7.024;2022-07-06T01:29:42;14.20;87.90
30889;DHT22;51092;50.874;7.024;2022-07-06T01:30:44;14.10;88.80
30889;DHT22;51092;50.874;7.024;2022-07-06T01:31:47;14.10;89.10
30889;DHT22;51092;50.874;7.024;2022-07-06T01:32:51;14.10;89.10
30889;DHT22;51092;50.874;7.024;2022-07-06T01:33:55;14.10;88.80
30889;DHT22;51092;50.874;7.024;2022-07-06T01:34:57;14.10;88.40
30889;DHT22;51092;50.874;7.024;2022-07-06T01:36:01;14.10;88.90
30889;DHT22;51092;50.874;7.024;2022-07-06T01:37:03;14.00;90.20
30889;DHT22;51092;50.874;7.024;2022-07-06T01:38:05;13.90;91.10
30889;DHT22;51092;50.874;7.024;2022-07-06T01:39:08;13.80;91.40
30889;DHT22;51092;50.874;7.024;2022-07-06T01:40:11;13.80;91.70
30889;DHT22;51092;50.874;7.024;2022-07-06T01:41:14;13.70;93.10
30889;DHT22;51092;50.874;7.024;2022-07-06T01:42:16;13.60;93.70
30889;DHT22;51092;50.874;7.024;2022-07-06T01:43:19;13.60;94.00
30889;DHT22;51092;50.874;7.024;2022-07-06T01:44:21;13.60;93.90
30889;DHT22;51092;50.874;7.024;2022-07-06T01:45:23;13.60;93.30
30889;DHT22;51092;50.874;7.024;2022-07-06T01:46:27;13.60;93.50
30889;DHT22;51092;50.874;7.024;2022-07-06T01:47:28;13.60;93.20
30889;DHT22;51092;50.874;7.024;2022-07-06T01:48:31;13.60;93.50
30889;DHT22;51092;50.874;7.024;2022-07-06T01:49:32;13.60;93.70
30889;DHT22;51092;50.874;7.024;2022-07-06T01:50:35;13.60;94.00
30889;DHT22;51092;50.874;7.024;2022-07-06T01:51:38;13.60;93.40
30889;DHT22;51092;50.874;7.024;2022-07-06T01:52:40;13.60;93.70
30889;DHT22;51092;50.874;7.024;2022-07-06T01:53:43;13.50;93.80
30889;DHT22;51092;50.874;7.024;2022-07-06T01:54:46;13.50;93.70
30889;DHT22;51092;50.874;7.024;2022-07-06T01:55:47;13.50;94.30
30889;DHT22;51092;50.874;7.024;2022-07-06T01:56:50;13.50;94.30
30889;DHT22;51092;50.874;7.024;2022-07-06T01:57:51;13.50;94.20
30889;DHT22;51092;50.874;7.024;2022-07-06T01:58:54;13.40;95.10
30889;DHT22;51092;50.874;7.024;2022-07-06T01:59:55;13.40;95.60
30889;DHT22;51092;50.874;7.024;2022-07-06T02:00:59;13.40;95.10
30889;DHT22;51092;50.874;7.024;2022-07-06T02:02:01;13.40;95.10
30889;DHT22;51092;50.874;7.024;2022-07-06T02:03:03;13.30;96.40
30889;DHT22;51092;50.874;7.024;2022-07-06T02:04:05;13.30;97.00
30889;DHT22;51092;50.874;7.024;2022-07-06T02:05:08;13.30;96.80
30889;DHT22;51092;50.874;7.024;2022-07-06T02:06:10;13.30;96.80
30889;DHT22;51092;50.874;7.024;2022-07-06T02:07:14;13.30;96.20
30889;DHT22;51092;50.874;7.024;2022-07-06T02:08:16;13.30;97.00
30889;DHT22;51092;50.874;7.024;2022-07-06T02:09:18;13.20;97.00
30889;DHT22;51092;50.874;7.024;2022-07-06T02:10:20;13.20;97.80
30889;DHT22;51092;50.874;7.024;2022-07-06T02:11:23;13.20;98.50
30889;DHT22;51092;50.874;7.024;2022-07-06T02:12:24;13.20;98.00
30889;DHT22;51092;50.874;7.024;2022-07-06T02:13:27;13.20;97.60
30889;DHT22;51092;50.874;7.024;2022-07-06T02:14:28;13.10;98.60
30889;DHT22;51092;50.874;7.024;2022-07-06T02:15:31;13.10;98.20
30889;DHT22;51092;50.874;7.024;2022-07-06T02:16:34;13.10;99.30
30889;DHT22;51092;50.874;7.024;2022-07-06T02:17:35;13.10;99.20
30889;DHT22;51092;50.874;7.024;2022-07-06T02:18:38;13.10;98.00
30889;DHT22;51092;50.874;7.024;2022-07-06T02:19:40;13.20;97.80
30889;DHT22;51092;50.874;7.024;2022-07-06T02:20:42;13.10;98.00
30889;DHT22;51092;50.874;7.024;2022-07-06T02:21:44;13.10;98.90
30889;DHT22;51092;50.874;7.024;2022-07-06T02:22:48;13.00;99.90
30889;DHT22;51092;50.874;7.024;2022-07-06T02:23:49;13.00;99.10
30889;DHT22;51092;50.874;7.024;2022-07-06T02:24:52;13.00;99.50
30889;DHT22;51092;50.874;7.024;2022-07-06T02:25:53;13.00;99.90
30889;DHT22;51092;50.874;7.024;2022-07-06T02:26:55;13.00;99.50
30889;DHT22;51092;50.874;7.024;2022-07-06T02:27:57;13.00;99.90
30889;DHT22;51092;50.874;7.024;2022-07-06T02:28:59;13.00;99.90
30889;DHT22;51092;50.874;7.024;2022-07-06T02:30:00;13.10;98.10
30889;DHT22;51092;50.874;7.024;2022-07-06T02:31:03;13.10;98.30
30889;DHT22;51092;50.874;7.024;2022-07-06T02:32:05;13.10;98.80
30889;DHT22;51092;50.874;7.024;2022-07-06T02:33:07;13.00;99.10
30889;DHT22;51092;50.874;7.024;2022-07-06T02:34:09;13.00;99.20
30889;DHT22;51092;50.874;7.024;2022-07-06T02:35:11;13.00;99.50
30889;DHT22;51092;50.874;7.024;2022-07-06T02:36:13;13.00;98.70
30889;DHT22;51092;50.874;7.024;2022-07-06T02:37:15;12.90;99.80
30889;DHT22;51092;50.874;7.024;2022-07-06T02:38:18;12.90;99.90
30889;DHT22;51092;50.874;7.024;2022-07-06T02:39:21;12.90;99.80
30889;DHT22;51092;50.874;7.024;2022-07-06T02:40:22;12.90;99.80
30889;DHT22;51092;50.874;7.024;2022-07-06T02:41:25;12.80;99.90
30889;DHT22;51092;50.874;7.024;2022-07-06T02:42:26;12.80;99.90
30889;DHT22;51092;50.874;7.024;2022-07-06T02:43:29;12.90;99.90
30889;DHT22;51092;50.874;7.024;2022-07-06T02:44:30;12.80;99.90
30889;DHT22;51092;50.874;7.024;2022-07-06T02:45:33;12.80;99.90
30889;DHT22;51092;50.874;7.024;2022-07-06T02:46:34;12.70;99.90
30889;DHT22;51092;50.874;7.024;2022-07-06T02:47:37;12.70;99.90
30889;DHT22;51092;50.874;7.024;2022-07-06T02:48:39;12.70;99.90
30889;DHT22;51092;50.874;7.024;2022-07-06T02:49:41;12.70;99.90
30889;DHT22;51092;50.874;7.024;2022-07-06T02:50:43;12.70;99.90
30889;DHT22;51092;50.874;7.024;2022-07-06T02:51:45;12.70;99.90
30889;DHT22;51092;50.874;7.024;2022-07-06T02:52:47;12.60;99.90
30889;DHT22;51092;50.874;7.024;2022-07-06T02:53:51;12.60;99.90
30889;DHT22;51092;50.874;7.024;2022-07-06T02:54:53;12.60;99.90
30889;DHT22;51092;50.874;7.024;2022-07-06T02:55:55;12.60;99.90
30889;DHT22;51092;50.874;7.024;2022-07-06T02:56:57;12.60;99.90
30889;DHT22;51092;50.874;7.024;2022-07-06T02:57:59;12.60;99.90
30889;DHT22;51092;50.874;7.024;2022-07-06T02:59:01;12.60;99.90
30889;DHT22;51092;50.874;7.024;2022-07-06T03:00:05;12.50;99.90
30889;DHT22;51092;50.874;7.024;2022-07-06T03:01:09;12.50;99.90
30889;DHT22;51092;50.874;7.024;2022-07-06T03:02:11;12.50;99.90
30889;DHT22;51092;50.874;7.024;2022-07-06T03:03:13;12.50;99.90
30889;DHT22;51092;50.874;7.024;2022-07-06T03:04:15;12.50;99.90
30889;DHT22;51092;50.874;7.024;2022-07-06T03:05:17;12.40;99.90
30889;DHT22;51092;50.874;7.024;2022-07-06T03:06:19;12.40;99.90
30889;DHT22;51092;50.874;7.024;2022-07-06T03:07:21;12.40;99.90
30889;DHT22;51092;50.874;7.024;2022-07-06T03:08:23;12.40;99.90
30889;DHT22;51092;50.874;7.024;2022-07-06T03:09:26;12.40;99.90
30889;DHT22;51092;50.874;7.024;2022-07-06T03:10:29;12.40;99.90
30889;DHT22;51092;50.874;7.024;2022-07-06T03:11:30;12.40;99.90
30889;DHT22;51092;50.874;7.024;2022-07-06T03:12:37;12.40;99.90
30889;DHT22;51092;50.874;7.024;2022-07-06T03:13:38;12.50;99.90
30889;DHT22;51092;50.874;7.024;2022-07-06T03:14:41;12.50;99.90
30889;DHT22;51092;50.874;7.024;2022-07-06T03:15:42;12.50;99.90
30889;DHT22;51092;50.874;7.024;2022-07-06T03:16:45;12.50;99.90
30889;DHT22;51092;50.874;7.024;2022-07-06T03:17:47;12.50;99.90
30889;DHT22;51092;50.874;7.024;2022-07-06T03:18:49;12.50;99.90
30889;DHT22;51092;50.874;7.024;2022-07-06T03:19:51;12.50;99.90
30889;DHT22;51092;50.874;7.024;2022-07-06T03:20:53;12.50;99.90
30889;DHT22;51092;50.874;7.024;2022-07-06T03:21:55;12.50;99.90
30889;DHT22;51092;50.874;7.024;2022-07-06T03:22:57;12.50;99.90
30889;DHT22;51092;50.874;7.024;2022-07-06T03:24:00;12.50;99.90
30889;DHT22;51092;50.874;7.024;2022-07-06T03:25:03;12.50;99.90
30889;DHT22;51092;50.874;7.024;2022-07-06T03:26:06;12.50;99.90
30889;DHT22;51092;50.874;7.024;2022-07-06T03:27:07;12.50;99.90
30889;DHT22;51092;50.874;7.024;2022-07-06T03:28:10;12.50;99.90
30889;DHT22;51092;50.874;7.024;2022-07-06T03:29:11;12.50;99.90
30889;DHT22;51092;50.874;7.024;2022-07-06T03:30:14;12.50;99.90
30889;DHT22;51092;50.874;7.024;2022-07-06T03:31:16;12.50;99.90
30889;DHT22;51092;50.874;7.024;2022-07-06T03:32:18;12.50;99.90
30889;DHT22;51092;50.874;7.024;2022-07-06T03:33:20;12.50;99.90
30889;DHT22;51092;50.874;7.024;2022-07-06T03:34:22;12.40;99.90
30889;DHT22;51092;50.874;7.024;2022-07-06T03:35:24;12.40;99.90
30889;DHT22;51092;50.874;7.024;2022-07-06T03:36:26;12.40;99.90
30889;DHT22;51092;50.874;7.024;2022-07-06T03:37:29;12.40;99.90
30889;DHT22;51092;50.874;7.024;2022-07-06T03:38:31;12.30;99.90
30889;DHT22;51092;50.874;7.024;2022-07-06T03:39:33;12.30;99.90
30889;DHT22;51092;50.874;7.024;2022-07-06T03:40:36;12.30;99.90
30889;DHT22;51092;50.874;7.024;2022-07-06T03:41:38;12.30;99.90
30889;DHT22;51092;50.874;7.024;2022-07-06T03:42:39;12.30;99.90
30889;DHT22;51092;50.874;7.024;2022-07-06T03:43:42;12.40;99.90
30889;DHT22;51092;50.874;7.024;2022-07-06T03:44:43;12.40;99.90
30889;DHT22;51092;50.874;7.024;2022-07-06T03:45:46;12.40;99.90
30889;DHT22;51092;50.874;7.024;2022-07-06T03:46:47;12.50;99.90
30889;DHT22;51092;50.874;7.024;2022-07-06T03:47:51;12.50;99.90
30889;DHT22;51092;50.874;7.024;2022-07-06T03:48:52;12.50;99.90
30889;DHT22;51092;50.874;7.024;2022-07-06T03:49:55;12.50;99.90
30889;DHT22;51092;50.874;7.024;2022-07-06T03:50:56;12.50;99.90
30889;DHT22;51092;50.874;7.024;2022-07-06T03:51:59;12.50;99.90
30889;DHT22;51092;50.874;7.024;2022-07-06T03:53:01;12.50;99.90
30889;DHT22;51092;50.874;7.024;2022-07-06T03:54:03;12.60;99.90
30889;DHT22;51092;50.874;7.024;2022-07-06T03:55:07;12.50;99.90
30889;DHT22;51092;50.874;7.024;2022-07-06T03:56:11;12.40;99.90
30889;DHT22;51092;50.874;7.024;2022-07-06T03:57:31;12.40;99.90
30889;DHT22;51092;50.874;7.024;2022-07-06T03:58:33;12.40;99.90
30889;DHT22;51092;50.874;7.024;2022-07-06T03:59:35;12.40;99.90
30889;DHT22;51092;50.874;7.024;2022-07-06T04:00:37;12.40;99.90
30889;DHT22;51092;50.874;7.024;2022-07-06T04:01:40;12.50;99.90
30889;DHT22;51092;50.874;7.024;2022-07-06T04:02:43;12.40;99.90
30889;DHT22;51092;50.874;7.024;2022-07-06T04:03:44;12.40;99.90
30889;DHT22;51092;50.874;7.024;2022-07-06T04:04:47;12.40;99.90
30889;DHT22;51092;50.874;7.024;2022-07-06T04:05:48;12.40;99.90
30889;DHT22;51092;50.874;7.024;2022-07-06T04:06:51;12.40;99.90
30889;DHT22;51092;50.874;7.024;2022-07-06T04:07:52;12.30;99.90
30889;DHT22;51092;50.874;7.024;2022-07-06T04:08:55;12.30;99.90
30889;DHT22;51092;50.874;7.024;2022-07-06T04:09:56;12.20;99.90
30889;DHT22;51092;50.874;7.024;2022-07-06T04:10:59;12.30;99.90
30889;DHT22;51092;50.874;7.024;2022-07-06T04:12:02;12.30;99.90
30889;DHT22;51092;50.874;7.024;2022-07-06T04:13:04;12.30;99.90
30889;DHT22;51092;50.874;7.024;2022-07-06T04:14:10;12.30;99.90
30889;DHT22;51092;50.874;7.024;2022-07-06T04:15:13;12.30;99.90
30889;DHT22;51092;50.874;7.024;2022-07-06T04:16:15;12.30;99.90
30889;DHT22;51092;50.874;7.024;2022-07-06T04:17:17;12.30;99.90
30889;DHT22;51092;50.874;7.024;2022-07-06T04:18:52;12.30;99.90
30889;DHT22;51092;50.874;7.024;2022-07-06T04:19:54;12.40;99.90
30889;DHT22;51092;50.874;7.024;2022-07-06T04:20:56;12.30;99.90
30889;DHT22;51092;50.874;7.024;2022-07-06T04:21:59;12.40;99.90
30889;DHT22;51092;50.874;7.024;2022-07-06T04:23:00;12.50;99.90
30889;DHT22;51092;50.874;7.024;2022-07-06T04:24:04;12.50;99.90
30889;DHT22;51092;50.874;7.024;2022-07-06T04:25:06;12.50;99.90
30889;DHT22;51092;50.874;7.024;2022-07-06T04:26:09;12.50;99.90
30889;DHT22;51092;50.874;7.024;2022-07-06T04:27:24;12.60;99.90
30889;DHT22;51092;50.874;7.024;2022-07-06T04:28:26;12.60;99.90
30889;DHT22;51092;50.874;7.024;2022-07-06T04:29:28;12.50;99.90
30889;DHT22;51092;50.874;7.024;2022-07-06T04:30:30;12.60;99.90
30889;DHT22;51092;50.874;7.024;2022-07-06T04:31:32;12.60;99.90
30889;DHT22;51092;50.874;7.024;2022-07-06T04:32:35;12.60;99.90
30889;DHT22;51092;50.874;7.024;2022-07-06T04:33:36;12.60;99.90
30889;DHT22;51092;50.874;7.024;2022-07-06T04:34:39;12.70;99.90
30889;DHT22;51092;50.874;7.024;2022-07-06T04:35:40;12.70;99.90
30889;DHT22;51092;50.874;7.024;2022-07-06T04:36:43;12.60;99.90
30889;DHT22;51092;50.874;7.024;2022-07-06T04:37:44;12.60;99.90
30889;DHT22;51092;50.874;7.024;2022-07-06T04:38:48;12.60;99.90
30889;DHT22;51092;50.874;7.024;2022-07-06T04:39:50;12.70;99.90
30889;DHT22;51092;50.874;7.024;2022-07-06T04:40:51;12.70;99.90
30889;DHT22;51092;50.874;7.024;2022-07-06T04:41:54;12.70;99.90
30889;DHT22;51092;50.874;7.024;2022-07-06T04:42:57;12.70;99.90
30889;DHT22;51092;50.874;7.024;2022-07-06T04:44:00;12.70;99.90
30889;DHT22;51092;50.874;7.024;2022-07-06T04:45:01;12.80;99.90
30889;DHT22;51092;50.874;7.024;2022-07-06T04:46:04;12.90;99.90
30889;DHT22;51092;50.874;7.024;2022-07-06T04:47:06;12.90;99.90
30889;DHT22;51092;50.874;7.024;2022-07-06T04:48:09;12.90;99.90
30889;DHT22;51092;50.874;7.024;2022-07-06T04:49:10;12.90;99.90
30889;DHT22;51092;50.874;7.024;2022-07-06T04:50:13;12.90;99.90
30889;DHT22;51092;50.874;7.024;2022-07-06T04:51:14;12.90;99.90
30889;DHT22;51092;50.874;7.024;2022-07-06T04:52:17;12.90;99.90
30889;DHT22;51092;50.874;7.024;2022-07-06T04:53:19;12.90;99.90
30889;DHT22;51092;50.874;7.024;2022-07-06T04:54:21;12.90;99.90
30889;DHT22;51092;50.874;7.024;2022-07-06T04:55:23;12.80;99.90
30889;DHT22;51092;50.874;7.024;2022-07-06T04:56:26;12.80;99.90
30889;DHT22;51092;50.874;7.024;2022-07-06T04:57:27;12.80;99.90
30889;DHT22;51092;50.874;7.024;2022-07-06T04:58:32;12.90;99.90
30889;DHT22;51092;50.874;7.024;2022-07-06T04:59:34;13.00;99.90
30889;DHT22;51092;50.874;7.024;2022-07-06T05:00:36;13.00;99.90
30889;DHT22;51092;50.874;7.024;2022-07-06T05:01:38;13.10;99.90
30889;DHT22;51092;50.874;7.024;2022-07-06T05:02:40;13.10;99.90
30889;DHT22;51092;50.874;7.024;2022-07-06T05:03:42;13.10;99.90
30889;DHT22;51092;50.874;7.024;2022-07-06T05:04:44;13.10;99.90
30889;DHT22;51092;50.874;7.024;2022-07-06T05:05:46;13.20;99.90
30889;DHT22;51092;50.874;7.024;2022-07-06T05:06:48;13.20;99.90
30889;DHT22;51092;50.874;7.024;2022-07-06T05:07:50;13.20;99.90
30889;DHT22;51092;50.874;7.024;2022-07-06T05:08:52;13.30;99.90
30889;DHT22;51092;50.874;7.024;2022-07-06T05:09:54;13.40;99.90
30889;DHT22;51092;50.874;7.024;2022-07-06T05:10:56;13.50;99.50
30889;DHT22;51092;50.874;7.024;2022-07-06T05:11:59;13.50;98.20
30889;DHT22;51092;50.874;7.024;2022-07-06T05:13:00;13.50;97.70
30889;DHT22;51092;50.874;7.024;2022-07-06T05:14:04;13.50;98.40
30889;DHT22;51092;50.874;7.024;2022-07-06T05:15:07;13.40;99.90
30889;DHT22;51092;50.874;7.024;2022-07-06T05:16:10;13.30;99.90
30889;DHT22;51092;50.874;7.024;2022-07-06T05:17:11;13.40;99.90
30889;DHT22;51092;50.874;7.024;2022-07-06T05:18:14;13.40;99.90
30889;DHT22;51092;50.874;7.024;2022-07-06T05:19:16;13.40;99.90
30889;DHT22;51092;50.874;7.024;2022-07-06T05:20:18;13.40;99.90
30889;DHT22;51092;50.874;7.024;2022-07-06T05:21:20;13.30;99.90
30889;DHT22;51092;50.874;7.024;2022-07-06T05:22:22;13.20;99.90
30889;DHT22;51092;50.874;7.024;2022-07-06T05:23:25;13.30;99.90
30889;DHT22;51092;50.874;7.024;2022-07-06T05:24:28;13.30;99.90
30889;DHT22;51092;50.874;7.024;2022-07-06T05:25:30;13.30;99.90
30889;DHT22;51092;50.874;7.024;2022-07-06T05:26:33;13.30;99.90
30889;DHT22;51092;50.874;7.024;2022-07-06T05:27:35;13.40;99.90
30889;DHT22;51092;50.874;7.024;2022-07-06T05:28:38;13.50;99.90
30889;DHT22;51092;50.874;7.024;2022-07-06T05:29:42;13.50;99.90
30889;DHT22;51092;50.874;7.024;2022-07-06T05:30:43;13.60;99.90
30889;DHT22;51092;50.874;7.024;2022-07-06T05:31:46;13.70;99.30
30889;DHT22;51092;50.874;7.024;2022-07-06T05:32:47;13.80;98.20
30889;DHT22;51092;50.874;7.024;2022-07-06T05:33:50;13.80;98.30
30889;DHT22;51092;50.874;7.024;2022-07-06T05:34:51;13.70;99.90
30889;DHT22;51092;50.874;7.024;2022-07-06T05:35:54;13.70;99.90
30889;DHT22;51092;50.874;7.024;2022-07-06T05:36:55;13.80;99.90
30889;DHT22;51092;50.874;7.024;2022-07-06T05:37:58;13.80;97.80
30889;DHT22;51092;50.874;7.024;2022-07-06T05:38:59;13.90;99.40
30889;DHT22;51092;50.874;7.024;2022-07-06T05:40:02;13.90;97.30
30889;DHT22;51092;50.874;7.024;2022-07-06T05:41:04;14.00;97.50
30889;DHT22;51092;50.874;7.024;2022-07-06T05:42:06;14.10;96.20
30889;DHT22;51092;50.874;7.024;2022-07-06T05:43:08;13.90;97.70
30889;DHT22;51092;50.874;7.024;2022-07-06T05:44:11;13.90;97.20
30889;DHT22;51092;50.874;7.024;2022-07-06T05:45:13;13.90;98.10
30889;DHT22;51092;50.874;7.024;2022-07-06T05:46:16;14.00;99.00
30889;DHT22;51092;50.874;7.024;2022-07-06T05:47:17;14.10;97.10
30889;DHT22;51092;50.874;7.024;2022-07-06T05:48:37;14.20;96.30
30889;DHT22;51092;50.874;7.024;2022-07-06T05:49:57;14.30;93.40
30889;DHT22;51092;50.874;7.024;2022-07-06T05:51:15;14.40;91.90
30889;DHT22;51092;50.874;7.024;2022-07-06T05:52:17;14.40;93.10
30889;DHT22;51092;50.874;7.024;2022-07-06T05:53:19;14.50;93.00
30889;DHT22;51092;50.874;7.024;2022-07-06T05:54:22;14.40;92.10
30889;DHT22;51092;50.874;7.024;2022-07-06T05:55:24;14.40;92.20
30889;DHT22;51092;50.874;7.024;2022-07-06T05:56:24;14.20;94.80
30889;DHT22;51092;50.874;7.024;2022-07-06T05:57:26;14.20;96.10
30889;DHT22;51092;50.874;7.024;2022-07-06T05:58:27;14.20;95.30
30889;DHT22;51092;50.874;7.024;2022-07-06T05:59:30;14.30;95.60
30889;DHT22;51092;50.874;7.024;2022-07-06T06:00:33;14.30;96.00
30889;DHT22;51092;50.874;7.024;2022-07-06T06:01:35;14.30;94.60
30889;DHT22;51092;50.874;7.024;2022-07-06T06:02:37;14.30;93.70
30889;DHT22;51092;50.874;7.024;2022-07-06T06:03:39;14.30;95.00
30889;DHT22;51092;50.874;7.024;2022-07-06T06:04:42;14.40;95.20
30889;DHT22;51092;50.874;7.024;2022-07-06T06:05:43;14.50;93.10
30889;DHT22;51092;50.874;7.024;2022-07-06T06:06:45;14.50;93.40
30889;DHT22;51092;50.874;7.024;2022-07-06T06:07:47;14.50;94.00
30889;DHT22;51092;50.874;7.024;2022-07-06T06:08:52;14.50;92.50
30889;DHT22;51092;50.874;7.024;2022-07-06T06:09:54;14.60;93.00
30889;DHT22;51092;50.874;7.024;2022-07-06T06:10:56;14.60;92.60
30889;DHT22;51092;50.874;7.024;2022-07-06T06:11:58;14.80;91.10
30889;DHT22;51092;50.874;7.024;2022-07-06T06:13:00;14.80;90.50
30889;DHT22;51092;50.874;7.024;2022-07-06T06:14:02;14.90;90.90
30889;DHT22;51092;50.874;7.024;2022-07-06T06:15:07;14.80;92.70
30889;DHT22;51092;50.874;7.024;2022-07-06T06:16:11;14.80;90.90
30889;DHT22;51092;50.874;7.024;2022-07-06T06:17:12;14.90;90.90
30889;DHT22;51092;50.874;7.024;2022-07-06T06:18:15;15.10;89.30
30889;DHT22;51092;50.874;7.024;2022-07-06T06:19:18;15.20;90.50
30889;DHT22;51092;50.874;7.024;2022-07-06T06:20:21;15.30;87.50
30889;DHT22;51092;50.874;7.024;2022-07-06T06:21:22;15.30;85.50
30889;DHT22;51092;50.874;7.024;2022-07-06T06:22:25;15.20;87.20
30889;DHT22;51092;50.874;7.024;2022-07-06T06:23:26;15.20;87.70
30889;DHT22;51092;50.874;7.024;2022-07-06T06:24:29;15.00;87.70
30889;DHT22;51092;50.874;7.024;2022-07-06T06:25:32;15.00;88.90
30889;DHT22;51092;50.874;7.024;2022-07-06T06:26:34;15.10;89.20
30889;DHT22;51092;50.874;7.024;2022-07-06T06:27:36;15.20;89.60
30889;DHT22;51092;50.874;7.024;2022-07-06T06:28:38;15.20;88.00
30889;DHT22;51092;50.874;7.024;2022-07-06T06:29:40;15.20;87.40
30889;DHT22;51092;50.874;7.024;2022-07-06T06:30:45;15.20;86.70
30889;DHT22;51092;50.874;7.024;2022-07-06T06:31:48;15.10;88.60
30889;DHT22;51092;50.874;7.024;2022-07-06T06:32:50;15.20;88.20
30889;DHT22;51092;50.874;7.024;2022-07-06T06:33:52;15.30;86.40
30889;DHT22;51092;50.874;7.024;2022-07-06T06:34:55;15.30;83.80
30889;DHT22;51092;50.874;7.024;2022-07-06T06:35:56;15.20;84.60